Time,TemperatureF,DewpointF,PressureIn,WindDirection,WindDirectionDegrees,WindSpeedMPH,WindSpeedGustMPH,Humidity,HourlyPrecipIn,Conditions,Clouds,dailyrainin,SoftwareType,DateUTC
2013-09-19 10:00:00,65.7,37.0,29.74,East,87,0.0,0.0,35,0.00,,,-99.99,wx200d/1.3,2013-09-19 17:00:00,
2013-09-19 10:15:00,66.7,36.0,29.74,ENE,78,0.0,0.0,33,0.00,,,-99.99,wx200d/1.3,2013-09-19 17:15:00,
2013-09-19 10:30:00,67.8,37.0,29.74,East,89,0.0,0.0,33,0.00,,,-99.99,wx200d/1.3,2013-09-19 17:30:00,
2013-09-19 10:45:00,68.5,37.0,29.74,East,90,0.0,0.0,33,0.00,,,-99.99,wx200d/1.3,2013-09-19 17:45:00,
2013-09-19 11:00:00,69.3,39.0,29.74,East,94,2.2,2.2,32,0.00,,,-99.99,wx200d/1.3,2013-09-19 18:00:00,
2013-09-19 11:15:00,70.0,36.0,29.74,East,93,0.0,0.0,29,0.00,,,-99.99,wx200d/1.3,2013-09-19 18:15:00,
2013-09-19 11:30:00,70.9,36.0,29.74,East,89,0.0,2.2,26,0.00,,,-99.99,wx200d/1.3,2013-09-19 18:30:00,
2013-09-19 11:45:00,72.1,34.0,29.74,East,88,0.0,0.0,24,0.00,,,-99.99,wx200d/1.3,2013-09-19 18:45:00,
2013-09-19 12:00:00,73.4,34.0,29.74,East,85,0.0,0.0,23,0.00,,,-99.99,wx200d/1.3,2013-09-19 19:00:00,
2013-09-19 12:15:00,74.8,34.0,29.74,West,270,0.0,0.0,22,0.00,,,-99.99,wx200d/1.3,2013-09-19 19:15:00,
2013-09-19 12:30:00,75.7,32.0,29.74,East,81,0.0,0.0,21,0.00,,,-99.99,wx200d/1.3,2013-09-19 19:30:00,
2013-09-19 12:45:00,75.9,32.0,29.71,West,262,0.0,0.0,20,0.00,,,-99.99,wx200d/1.3,2013-09-19 19:45:00,
2013-09-19 13:00:00,75.9,32.0,29.71,West,260,0.0,0.0,20,0.00,,,-99.99,wx200d/1.3,2013-09-19 20:00:00,
2013-09-19 13:15:00,75.6,32.0,29.71,West,271,2.2,2.7,20,0.00,,,-99.99,wx200d/1.3,2013-09-19 20:15:00,
2013-09-19 13:30:00,75.0,32.0,29.71,West,272,2.7,2.7,21,0.00,,,-99.99,wx200d/1.3,2013-09-19 20:30:00,
2013-09-19 13:45:00,75.9,32.0,29.71,WNW,298,0.0,0.0,18,0.00,,,-99.99,wx200d/1.3,2013-09-19 20:45:00,
2013-09-19 14:00:00,76.5,32.0,29.71,West,269,2.2,2.7,15,0.00,,,-99.99,wx200d/1.3,2013-09-19 21:00:00,
2013-09-19 14:15:00,76.3,32.0,29.71,West,276,0.0,0.0,15,0.00,,,-99.99,wx200d/1.3,2013-09-19 21:15:00,
2013-09-19 14:30:00,76.5,32.0,29.68,West,274,2.2,3.1,15,0.00,,,-99.99,wx200d/1.3,2013-09-19 21:30:00,
2013-09-19 14:45:00,76.5,32.0,29.68,West,281,2.7,3.6,15,0.00,,,-99.99,wx200d/1.3,2013-09-19 21:45:00,
2013-09-19 15:00:00,76.5,32.0,29.68,West,267,2.2,2.7,15,0.00,,,-99.99,wx200d/1.3,2013-09-19 22:00:00,
2013-09-19 15:15:00,76.3,32.0,29.68,West,275,0.0,0.0,15,0.00,,,-99.99,wx200d/1.3,2013-09-19 22:15:00,
2013-09-19 15:30:00,75.7,32.0,29.68,West,265,0.0,0.0,15,0.00,,,-99.99,wx200d/1.3,2013-09-19 22:30:00,
2013-09-19 15:45:00,75.4,32.0,29.68,West,275,2.2,2.7,15,0.00,,,-99.99,wx200d/1.3,2013-09-19 22:45:00,
2013-09-19 16:00:00,74.3,32.0,29.68,West,272,3.6,3.6,16,0.00,,,-99.99,wx200d/1.3,2013-09-19 23:00:00,
2013-09-19 16:15:00,73.2,32.0,29.68,West,266,3.6,3.6,16,0.00,,,-99.99,wx200d/1.3,2013-09-19 23:15:00,
2013-09-19 16:30:00,72.5,32.0,29.65,West,270,3.1,3.1,16,0.00,,,-99.99,wx200d/1.3,2013-09-19 23:30:00,
2013-09-19 16:45:00,72.9,32.0,29.65,West,262,2.7,3.6,16,0.00,,,-99.99,wx200d/1.3,2013-09-19 23:45:00,
2013-09-19 17:00:00,72.5,32.0,29.65,WSW,249,2.7,2.7,16,0.00,,,-99.99,wx200d/1.3,2013-09-20 00:00:00,
2013-09-19 17:15:00,72.5,32.0,29.65,West,270,3.1,3.1,16,0.00,,,-99.99,wx200d/1.3,2013-09-20 00:15:00,
2013-09-19 17:30:00,72.0,32.0,29.65,West,276,3.1,3.1,16,0.00,,,-99.99,wx200d/1.3,2013-09-20 00:30:00,
2013-09-19 17:45:00,72.0,32.0,29.65,West,277,0.0,0.0,14,0.00,,,-99.99,wx200d/1.3,2013-09-20 00:45:00,
2013-09-19 18:00:00,71.2,32.0,29.65,West,272,2.2,0.0,17,0.00,,,-99.99,wx200d/1.3,2013-09-20 01:00:00,
2013-09-19 18:15:00,68.9,32.0,29.65,West,280,2.2,3.1,17,0.00,,,-99.99,wx200d/1.3,2013-09-20 01:15:00,
2013-09-19 18:30:00,67.6,32.0,29.65,West,274,2.7,0.0,20,0.00,,,-99.99,wx200d/1.3,2013-09-20 01:30:00,
2013-09-19 18:45:00,66.2,32.0,29.65,WNW,283,2.2,2.7,22,0.00,,,-99.99,wx200d/1.3,2013-09-20 01:45:00,
2013-09-19 19:00:00,63.9,32.0,29.65,West,276,3.1,3.1,28,0.00,,,-99.99,wx200d/1.3,2013-09-20 02:00:00,
2013-09-19 19:15:00,62.1,34.0,29.65,West,276,2.2,2.2,35,0.00,,,-99.99,wx200d/1.3,2013-09-20 02:15:00,
2013-09-19 19:30:00,61.2,34.0,29.62,West,275,2.7,0.0,35,0.00,,,-99.99,wx200d/1.3,2013-09-20 02:30:00,
2013-09-19 19:45:00,61.2,34.0,29.62,West,273,2.7,2.7,35,0.00,,,-99.99,wx200d/1.3,2013-09-20 02:45:00,
2013-09-19 20:00:00,60.6,34.0,29.62,WSW,247,0.0,0.0,36,0.00,,,-99.99,wx200d/1.3,2013-09-20 03:00:00,
2013-09-19 20:15:00,60.4,34.0,29.62,WSW,254,0.0,2.2,35,0.00,,,-99.99,wx200d/1.3,2013-09-20 03:15:00,
2013-09-19 20:30:00,60.4,34.0,29.65,WSW,251,0.0,0.0,35,0.00,,,-99.99,wx200d/1.3,2013-09-20 03:30:00,
2013-09-19 20:45:00,59.9,34.0,29.65,West,267,0.0,0.0,36,0.00,,,-99.99,wx200d/1.3,2013-09-20 03:45:00,
2013-09-19 21:00:00,59.0,34.0,29.65,East,94,0.0,0.0,38,0.00,,,-99.99,wx200d/1.3,2013-09-20 04:00:00,
2013-09-19 21:15:00,58.3,37.0,29.68,West,276,2.2,0.0,45,0.00,,,-99.99,wx200d/1.3,2013-09-20 04:15:00,
2013-09-19 21:30:00,57.9,37.0,29.68,ESE,112,0.0,0.0,47,0.00,,,-99.99,wx200d/1.3,2013-09-20 04:30:00,
2013-09-19 21:45:00,57.2,37.0,29.68,West,269,0.0,0.0,47,0.00,,,-99.99,wx200d/1.3,2013-09-20 04:45:00,
2013-09-19 22:00:00,56.7,37.0,29.65,West,269,0.0,0.0,48,0.00,,,-99.99,wx200d/1.3,2013-09-20 05:00:00,
2013-09-19 22:15:00,56.3,37.0,29.68,West,269,0.0,0.0,49,0.00,,,-99.99,wx200d/1.3,2013-09-20 05:15:00,
2013-09-19 22:30:00,55.8,37.0,29.68,West,270,0.0,0.0,49,0.00,,,-99.99,wx200d/1.3,2013-09-20 05:30:00,
2013-09-19 22:45:00,55.4,37.0,29.68,West,269,0.0,0.0,51,0.00,,,-99.99,wx200d/1.3,2013-09-20 05:45:00,
2013-09-19 23:00:00,55.4,39.0,29.68,West,267,0.0,0.0,55,0.00,,,-99.99,wx200d/1.3,2013-09-20 06:00:00,
2013-09-19 23:15:00,54.9,39.0,29.68,West,275,0.0,0.0,56,0.00,,,-99.99,wx200d/1.3,2013-09-20 06:15:00,
2013-09-19 23:30:00,54.3,39.0,29.68,West,275,0.0,0.0,56,0.00,,,-99.99,wx200d/1.3,2013-09-20 06:30:00,
2013-09-19 23:45:00,54.1,39.0,29.68,West,275,0.0,0.0,57,0.00,,,-99.99,wx200d/1.3,2013-09-20 06:45:00,